createdAt,value
2022-08-05T00:02:23.588Z,9.30
2022-08-05T00:04:52.882Z,15.98
2022-08-05T00:07:59.111Z,8.98
2022-08-05T00:10:11.649Z,11.45
2022-08-05T00:12:56.529Z,9.13
2022-08-05T00:15:55.757Z,6.43
2022-08-05T00:18:21.431Z,9.98
2022-08-05T00:20:49.842Z,9.85
2022-08-05T00:23:17.572Z,9.98
2022-08-05T00:26:05.895Z,10.02
2022-08-05T00:28:33.629Z,8.93
2022-08-05T00:31:02.744Z,11.70
2022-08-05T00:34:57.050Z,10.07
2022-08-05T00:37:12.709Z,10.50
2022-08-05T00:39:26.500Z,9.18
2022-08-05T00:42:05.295Z,7.45
2022-08-05T00:44:32.964Z,9.13
2022-08-05T00:47:03.908Z,13.55
2022-08-05T00:49:51.045Z,11.70
2022-08-05T00:52:28.264Z,5.68
2022-08-05T00:54:56.808Z,6.07
2022-08-05T00:57:25.420Z,8.88
2022-08-05T00:59:59.635Z,11.63
2022-08-05T01:02:27.277Z,7.28
2022-08-05T01:04:56.385Z,9.05
2022-08-05T01:07:31.881Z,6.72
2022-08-05T01:09:59.861Z,6.22
2022-08-05T01:12:29.672Z,6.75
2022-08-05T01:15:03.908Z,7.30
2022-08-05T01:17:39.973Z,8.82
2022-08-05T01:20:22.413Z,8.35
2022-08-05T01:23:14.370Z,6.03
2022-08-05T01:26:00.625Z,7.90
2022-08-05T01:28:39.673Z,10.98
2022-08-05T01:31:11.800Z,13.07
2022-08-05T01:33:48.893Z,9.07
2022-08-05T01:36:21.053Z,8.90
2022-08-05T01:38:57.011Z,10.95
2022-08-05T01:41:32.279Z,8.75
2022-08-05T01:44:02.923Z,5.80
2022-08-05T01:46:41.425Z,7.00
2022-08-05T01:49:23.157Z,10.13
2022-08-05T01:51:58.302Z,11.15
2022-08-05T01:54:30.500Z,13.40
2022-08-05T01:58:12.975Z,11.48
2022-08-05T01:59:50.347Z,8.48
2022-08-05T02:02:25.969Z,11.05
2022-08-05T02:04:59.584Z,10.95
2022-08-05T02:07:30.241Z,8.93
2022-08-05T02:09:59.205Z,7.03
2022-08-05T02:12:35.352Z,8.23
2022-08-05T02:15:12.350Z,6.47
2022-08-05T02:18:31.993Z,6.57
2022-08-05T02:20:41.098Z,7.65
2022-08-05T02:23:12.787Z,9.73
2022-08-05T02:25:49.321Z,7.82
2022-08-05T02:28:28.479Z,13.07
2022-08-05T02:31:01.783Z,12.60
2022-08-05T02:33:36.083Z,8.43
2022-08-05T02:36:09.361Z,11.57
2022-08-05T02:38:38.705Z,15.15
2022-08-05T02:41:16.956Z,9.35
2022-08-05T02:44:06.627Z,8.30
2022-08-05T02:46:53.558Z,6.47
2022-08-05T02:49:27.069Z,10.20
2022-08-05T02:52:04.932Z,10.77
2022-08-05T02:54:36.966Z,11.05
2022-08-05T02:57:10.209Z,10.25
2022-08-05T02:59:56.473Z,11.82
2022-08-05T03:02:30.590Z,13.35
2022-08-05T03:05:00.771Z,9.57
2022-08-05T03:07:59.194Z,9.63
2022-08-05T03:10:22.119Z,12.77
2022-08-05T03:12:53.494Z,10.13
2022-08-05T03:15:23.754Z,10.52
2022-08-05T03:17:55.949Z,9.65
2022-08-05T03:20:25.386Z,11.20
2022-08-05T03:22:57.160Z,13.50
2022-08-05T03:25:32.956Z,8.43
2022-08-05T03:28:18.525Z,8.05
2022-08-05T03:30:48.347Z,7.90
2022-08-05T03:33:18.225Z,7.65
2022-08-05T03:35:47.381Z,7.75
2022-08-05T03:38:15.823Z,8.95
2022-08-05T03:40:44.925Z,7.05
2022-08-05T03:43:58.474Z,6.60
2022-08-05T03:46:01.424Z,5.95
2022-08-05T03:48:35.457Z,7.25
2022-08-05T03:52:49.352Z,5.90
2022-08-05T03:55:51.689Z,7.57
2022-08-05T03:56:50.116Z,5.63
2022-08-05T03:59:20.887Z,3.58
2022-08-05T04:01:52.145Z,7.40
2022-08-05T04:04:22.583Z,5.72
2022-08-05T04:06:54.767Z,6.55
2022-08-05T04:09:26.137Z,4.43
2022-08-05T04:11:56.727Z,7.78
2022-08-05T04:14:30.601Z,6.15
2022-08-05T04:17:00.008Z,7.30
2022-08-05T04:19:30.573Z,5.72
2022-08-05T04:22:09.508Z,6.43
2022-08-05T04:24:44.025Z,9.05
2022-08-05T04:27:13.300Z,6.20
2022-08-05T04:29:41.434Z,5.47
2022-08-05T04:32:09.430Z,5.55
2022-08-05T04:34:43.097Z,4.35
2022-08-05T04:37:11.586Z,5.03
2022-08-05T04:39:40.649Z,8.88
2022-08-05T04:42:09.243Z,4.90
2022-08-05T04:44:37.025Z,7.65
2022-08-05T04:47:09.420Z,5.15
2022-08-05T04:50:02.468Z,5.75
2022-08-05T04:52:28.053Z,8.32
2022-08-05T04:54:57.601Z,7.63
2022-08-05T04:57:28.788Z,7.13
2022-08-05T04:59:57.211Z,8.75
2022-08-05T05:02:36.433Z,9.38
2022-08-05T05:05:16.751Z,5.68
2022-08-05T05:07:56.053Z,5.45
2022-08-05T05:10:24.635Z,8.05
2022-08-05T05:12:57.165Z,4.80
2022-08-05T05:15:56.521Z,6.00
2022-08-05T05:18:14.829Z,7.00
2022-08-05T05:20:56.934Z,7.28
2022-08-05T05:23:26.224Z,4.38
2022-08-05T05:25:54.184Z,5.15
2022-08-05T05:28:22.116Z,4.28
2022-08-05T05:30:52.822Z,5.82
2022-08-05T05:33:23.452Z,6.95
2022-08-05T05:35:51.905Z,4.60
2022-08-05T05:38:22.366Z,4.05
2022-08-05T05:40:55.222Z,5.57
2022-08-05T05:43:56.513Z,6.15
2022-08-05T05:46:15.957Z,4.50
2022-08-05T05:48:45.994Z,5.22
2022-08-05T05:51:21.532Z,6.18
2022-08-05T05:53:57.843Z,7.60
2022-08-05T05:56:32.369Z,4.28
2022-08-05T05:59:03.150Z,5.20
2022-08-05T06:01:37.811Z,5.22
2022-08-05T06:04:07.379Z,5.05
2022-08-05T06:06:35.496Z,5.82
2022-08-05T06:09:05.464Z,5.68
2022-08-05T06:11:33.473Z,4.95
2022-08-05T06:14:02.202Z,4.65
2022-08-05T06:16:36.656Z,3.03
2022-08-05T06:19:07.190Z,3.70
2022-08-05T06:21:38.374Z,4.13
2022-08-05T06:24:12.101Z,5.97
2022-08-05T06:26:52.287Z,5.72
2022-08-05T06:29:25.063Z,4.70
2022-08-05T06:32:17.231Z,2.67
2022-08-05T06:34:56.355Z,3.55
2022-08-05T06:37:56.480Z,4.22
2022-08-05T06:40:18.143Z,2.50
2022-08-05T06:42:48.991Z,3.10
2022-08-05T06:53:32.467Z,2.78
2022-08-05T06:56:25.680Z,2.90
2022-08-05T06:58:53.850Z,2.33
2022-08-05T07:01:21.760Z,5.22
2022-08-05T07:03:50.729Z,4.30
2022-08-05T07:06:19.278Z,2.42
2022-08-05T07:08:51.816Z,3.30
2022-08-05T07:11:25.652Z,3.70
2022-08-05T07:14:28.876Z,4.88
2022-08-05T07:17:59.044Z,3.85
2022-08-05T07:22:36.981Z,3.80
2022-08-05T07:25:22.046Z,3.15
2022-08-05T07:28:02.264Z,3.92
2022-08-05T07:30:39.126Z,4.50
2022-08-05T07:33:10.363Z,3.20
2022-08-05T07:36:01.483Z,5.45
2022-08-05T07:38:33.357Z,3.67
2022-08-05T07:42:07.480Z,7.35
2022-08-05T07:43:56.924Z,3.15
2022-08-05T07:46:26.395Z,3.83
2022-08-05T07:49:01.711Z,4.80
2022-08-05T07:51:37.347Z,4.07
2022-08-05T07:54:08.454Z,3.33
2022-08-05T07:56:59.865Z,4.97
2022-08-05T07:59:38.928Z,3.13
2022-08-05T08:02:15.492Z,2.85
2022-08-05T08:04:45.605Z,2.60
2022-08-05T08:07:13.778Z,3.00
2022-08-05T08:09:41.631Z,2.15
2022-08-05T08:12:20.973Z,2.60
2022-08-05T08:15:02.260Z,4.25
2022-08-05T08:17:30.814Z,4.43
2022-08-05T08:20:22.026Z,3.33
2022-08-05T08:22:52.202Z,3.50
2022-08-05T08:25:26.839Z,3.58
2022-08-05T08:28:18.004Z,3.10
2022-08-05T08:30:50.272Z,4.25
2022-08-05T08:33:19.188Z,3.42
2022-08-05T08:35:52.338Z,3.08
2022-08-05T08:38:35.498Z,3.88
2022-08-05T08:41:07.127Z,5.07
2022-08-05T08:45:24.433Z,3.10
2022-08-05T08:46:28.500Z,3.53
2022-08-05T08:49:06.402Z,3.15
2022-08-05T08:52:03.069Z,3.70
2022-08-05T08:54:36.533Z,5.93
2022-08-05T08:57:11.450Z,4.78
2022-08-05T08:59:41.717Z,2.85
2022-08-05T09:02:18.891Z,3.90
2022-08-05T09:05:16.253Z,3.53
2022-08-05T09:07:39.975Z,4.25
2022-08-05T09:10:27.145Z,2.85
2022-08-05T09:12:56.899Z,4.47
2022-08-05T09:15:32.462Z,3.22
2022-08-05T09:18:09.194Z,3.95
2022-08-05T09:20:38.278Z,5.30
2022-08-05T09:23:18.862Z,3.85
2022-08-05T09:26:01.667Z,4.20
2022-08-05T09:28:34.323Z,3.53
2022-08-05T09:31:18.211Z,3.60
2022-08-05T09:33:56.635Z,3.13
2022-08-05T09:36:27.638Z,3.70
2022-08-05T09:39:18.367Z,4.13
2022-08-05T09:41:58.313Z,6.20
2022-08-05T09:44:37.334Z,3.63
2022-08-05T09:47:15.447Z,4.03
2022-08-05T09:50:01.375Z,2.95
2022-08-05T09:52:32.674Z,2.70
2022-08-05T09:55:55.079Z,4.05
2022-08-05T09:57:54.554Z,3.50
2022-08-05T10:00:26.812Z,3.60
2022-08-05T10:02:58.570Z,3.13
2022-08-05T10:05:32.768Z,5.63
2022-08-05T10:08:36.877Z,2.75
2022-08-05T10:10:54.595Z,3.50
2022-08-05T10:13:31.784Z,3.85
2022-08-05T10:16:32.238Z,5.68
2022-08-05T10:19:08.455Z,3.15
2022-08-05T10:21:40.853Z,4.25
2022-08-05T10:24:13.155Z,3.53
2022-08-05T10:26:51.328Z,5.07
2022-08-05T10:29:23.409Z,4.03
2022-08-05T10:32:54.802Z,4.60
2022-08-05T10:35:00.960Z,3.80
2022-08-05T10:37:40.484Z,4.18
2022-08-05T10:40:27.830Z,5.68
2022-08-05T10:43:02.251Z,3.92
2022-08-05T10:45:41.855Z,4.68
2022-08-05T10:48:58.063Z,5.53
2022-08-05T10:51:28.946Z,5.32
2022-08-05T10:54:01.631Z,4.97
2022-08-05T10:56:31.110Z,3.55
2022-08-05T10:59:12.721Z,3.70
2022-08-05T11:02:34.572Z,4.28
2022-08-05T11:04:56.670Z,4.30
2022-08-05T11:07:32.576Z,5.47
2022-08-05T11:10:04.131Z,4.07
2022-08-05T11:12:50.834Z,6.38
2022-08-05T11:15:58.875Z,5.03
2022-08-05T11:18:30.020Z,3.70
2022-08-05T11:21:00.066Z,5.38
2022-08-05T11:24:02.732Z,3.03
2022-08-05T11:26:28.996Z,6.00
2022-08-05T11:29:12.221Z,5.03
2022-08-05T11:31:58.457Z,5.38
2022-08-05T11:34:52.188Z,3.92
2022-08-05T11:38:26.237Z,3.90
2022-08-05T11:41:01.380Z,3.38
2022-08-05T11:44:05.173Z,4.00
2022-08-05T11:46:34.350Z,3.30
2022-08-05T11:49:04.249Z,3.53
2022-08-05T11:51:44.393Z,4.18
2022-08-05T11:54:33.653Z,3.45
2022-08-05T11:57:08.561Z,4.70
2022-08-05T11:59:55.504Z,5.28
2022-08-05T12:02:32.057Z,4.15
2022-08-05T12:05:01.542Z,4.75
2022-08-05T12:08:07.900Z,2.85
2022-08-05T12:10:43.431Z,2.90
2022-08-05T12:13:15.685Z,4.43
2022-08-05T12:15:50.042Z,3.67
2022-08-05T12:18:32.825Z,3.38
2022-08-05T12:21:11.236Z,4.43
2022-08-05T12:23:42.947Z,3.30
2022-08-05T12:26:11.243Z,4.18
2022-08-05T12:28:39.408Z,3.67
2022-08-05T12:31:09.567Z,5.10
2022-08-05T12:33:38.773Z,2.80
2022-08-05T12:36:08.521Z,4.90
2022-08-05T12:38:38.257Z,4.03
2022-08-05T12:41:13.492Z,4.60
2022-08-05T12:43:56.345Z,4.07
2022-08-05T12:46:29.343Z,4.65
2022-08-05T12:48:59.346Z,3.65
2022-08-05T12:52:13.551Z,3.45
2022-08-05T12:54:26.537Z,6.20
2022-08-05T12:56:56.224Z,3.80
2022-08-05T12:59:46.453Z,4.65
2022-08-05T13:02:19.810Z,5.57
2022-08-05T13:04:52.431Z,4.00
2022-08-05T13:07:56.183Z,3.47
2022-08-05T13:10:19.907Z,3.35
2022-08-05T13:12:57.533Z,4.57
2022-08-05T13:15:42.045Z,3.53
2022-08-05T13:18:20.638Z,3.10
2022-08-05T13:20:49.864Z,4.40
2022-08-05T13:23:22.790Z,3.42
2022-08-05T13:25:59.715Z,3.75
2022-08-05T13:28:29.027Z,3.20
2022-08-05T13:30:57.104Z,2.60
2022-08-05T13:34:23.364Z,3.10
2022-08-05T13:36:14.634Z,3.08
2022-08-05T13:38:43.251Z,3.60
2022-08-05T13:41:11.981Z,3.88
2022-08-05T13:43:45.550Z,3.50
2022-08-05T13:46:50.557Z,5.47
2022-08-05T13:49:13.613Z,5.00
2022-08-05T13:51:46.111Z,3.75
2022-08-05T13:54:16.029Z,2.75
2022-08-05T13:56:51.184Z,3.65
2022-08-05T13:59:24.901Z,3.97
2022-08-05T14:01:57.556Z,3.35
2022-08-05T14:04:49.818Z,3.72
2022-08-05T14:07:26.083Z,3.42
2022-08-05T14:10:08.589Z,3.88
2022-08-05T14:12:36.615Z,3.65
2022-08-05T14:15:05.859Z,3.65
2022-08-05T14:17:54.933Z,3.63
2022-08-05T14:20:29.462Z,3.70
2022-08-05T14:22:57.347Z,5.05
2022-08-05T14:25:28.314Z,2.75
2022-08-05T14:27:58.712Z,3.35
2022-08-05T14:30:28.091Z,3.72
2022-08-05T14:32:56.624Z,4.38
2022-08-05T14:35:50.060Z,4.95
2022-08-05T14:38:31.884Z,3.58
2022-08-05T14:41:06.451Z,3.03
2022-08-05T14:44:02.245Z,3.05
2022-08-05T14:46:28.760Z,2.45
2022-08-05T14:48:58.130Z,4.10
2022-08-05T14:51:30.814Z,4.20
2022-08-05T14:54:26.656Z,4.57
2022-08-05T14:56:47.805Z,8.30
2022-08-05T14:59:15.975Z,6.28
2022-08-05T15:01:48.251Z,8.02
2022-08-05T15:04:17.508Z,9.73
2022-08-05T15:06:49.453Z,9.32
2022-08-05T15:09:51.598Z,10.70
2022-08-05T15:12:09.015Z,9.75
2022-08-05T15:14:42.239Z,10.38
2022-08-05T15:17:46.398Z,11.35
2022-08-05T15:20:06.473Z,10.75
2022-08-05T15:22:37.681Z,10.98
2022-08-05T15:25:11.915Z,14.60
2022-08-05T15:27:42.905Z,10.45
2022-08-05T15:30:19.559Z,11.57
2022-08-05T15:32:47.471Z,11.00
2022-08-05T15:35:15.175Z,12.95
2022-08-05T15:38:32.988Z,12.48
2022-08-05T15:40:59.708Z,13.15
2022-08-05T15:43:21.358Z,11.10
2022-08-05T15:46:00.487Z,12.18
2022-08-05T15:48:29.636Z,9.55
2022-08-05T15:50:57.635Z,12.70
2022-08-05T15:53:26.381Z,11.10
2022-08-05T15:56:03.545Z,10.48
2022-08-05T15:58:36.941Z,11.38
2022-08-05T16:01:17.010Z,11.60
2022-08-05T16:03:48.565Z,9.55
2022-08-05T16:06:20.418Z,10.57
2022-08-05T16:08:50.368Z,10.52
2022-08-05T16:11:20.915Z,9.73
2022-08-05T16:13:48.792Z,11.15
2022-08-05T16:16:21.232Z,9.98
2022-08-05T16:18:53.162Z,9.77
2022-08-05T16:21:59.443Z,9.68
2022-08-05T16:24:12.847Z,8.35
2022-08-05T16:27:00.409Z,7.03
2022-08-05T16:29:37.027Z,8.90
2022-08-05T16:32:06.312Z,9.50
2022-08-05T16:34:34.014Z,7.45
2022-08-05T16:37:01.802Z,9.32
2022-08-05T16:40:04.698Z,7.30
2022-08-05T16:42:36.566Z,7.50
2022-08-05T16:45:39.233Z,5.32
2022-08-05T16:47:53.472Z,8.00
2022-08-05T16:50:25.295Z,6.25
2022-08-05T16:52:53.104Z,7.35
2022-08-05T16:55:24.632Z,7.13
2022-08-05T16:58:01.351Z,7.07
2022-08-05T17:00:34.840Z,6.38
2022-08-05T17:03:03.555Z,8.32
2022-08-05T17:05:31.889Z,6.88
2022-08-05T17:07:59.782Z,5.95
2022-08-05T17:10:30.466Z,5.47
2022-08-05T17:12:59.715Z,5.03
2022-08-05T17:15:29.507Z,4.47
2022-08-05T17:18:16.466Z,6.18
2022-08-05T17:20:46.893Z,5.07
2022-08-05T17:24:02.969Z,3.88
2022-08-05T17:26:02.834Z,5.10
2022-08-05T17:28:31.833Z,3.53
2022-08-05T17:30:59.498Z,4.82
2022-08-05T17:33:38.878Z,6.15
2022-08-05T17:36:33.854Z,2.83
2022-08-05T17:39:03.287Z,3.15
2022-08-05T17:42:19.728Z,4.82
2022-08-05T17:44:26.707Z,3.95
2022-08-05T17:47:00.422Z,3.88
2022-08-05T17:49:28.135Z,2.85
2022-08-05T17:52:16.345Z,3.20
2022-08-05T17:54:44.162Z,5.53
2022-08-05T17:57:12.442Z,4.50
2022-08-05T17:59:47.148Z,3.28
2022-08-05T18:02:31.085Z,4.47
2022-08-05T18:05:02.911Z,2.60
2022-08-05T18:07:41.543Z,2.67
2022-08-05T18:10:11.532Z,4.57
2022-08-05T18:12:42.399Z,1.90
2022-08-05T18:15:11.965Z,2.70
2022-08-05T18:17:59.490Z,5.45
2022-08-05T18:20:29.638Z,3.22
2022-08-05T18:23:00.749Z,3.17
2022-08-05T18:25:39.514Z,2.97
2022-08-05T18:28:12.694Z,6.93
2022-08-05T18:30:50.891Z,4.78
2022-08-05T18:33:23.085Z,7.18
2022-08-05T18:36:04.894Z,4.75
2022-08-05T18:38:35.817Z,3.47
2022-08-05T18:41:57.092Z,3.15
2022-08-05T18:43:51.958Z,4.55
2022-08-05T18:46:20.958Z,3.13
2022-08-05T18:48:51.874Z,5.15
2022-08-05T18:52:05.511Z,2.03
2022-08-05T18:54:26.320Z,2.03
2022-08-05T18:56:57.270Z,1.65
2022-08-05T18:59:42.811Z,2.50
2022-08-05T19:02:27.017Z,2.50
2022-08-05T19:06:05.867Z,1.90
2022-08-05T19:07:52.476Z,3.88
2022-08-05T19:10:28.459Z,2.97
2022-08-05T19:12:56.929Z,2.60
2022-08-05T19:15:57.909Z,2.05
2022-08-05T19:18:22.278Z,4.60
2022-08-05T19:20:52.337Z,2.78
2022-08-05T19:24:04.372Z,1.80
2022-08-05T19:26:09.594Z,3.95
2022-08-05T19:28:42.027Z,2.22
2022-08-05T19:31:12.876Z,5.28
2022-08-05T19:33:48.470Z,2.22
2022-08-05T19:36:25.764Z,1.92
2022-08-05T19:38:54.700Z,1.92
2022-08-05T19:42:06.486Z,3.00
2022-08-05T19:44:13.555Z,2.78
2022-08-05T19:46:43.675Z,4.65
2022-08-05T19:49:17.215Z,2.00
2022-08-05T19:52:05.732Z,3.38
2022-08-05T19:54:34.324Z,4.85
2022-08-05T19:57:06.657Z,5.38
2022-08-05T20:00:00.575Z,4.95
2022-08-05T20:02:31.486Z,2.10
2022-08-05T20:05:00.981Z,1.90
2022-08-05T20:07:46.721Z,2.90
2022-08-05T20:10:19.400Z,2.92
2022-08-05T20:12:50.442Z,1.63
2022-08-05T20:15:23.246Z,3.08
2022-08-05T20:18:10.222Z,3.38
2022-08-05T20:20:57.943Z,4.05
2022-08-05T20:23:40.033Z,5.28
2022-08-05T20:26:17.255Z,4.35
2022-08-05T20:28:48.600Z,3.83
2022-08-05T20:31:16.926Z,3.65
2022-08-05T20:33:45.428Z,2.63
2022-08-05T20:36:16.414Z,4.10
2022-08-05T20:38:54.524Z,3.60
2022-08-05T20:41:44.420Z,4.45
2022-08-05T20:44:18.846Z,3.13
2022-08-05T20:46:57.430Z,3.05
2022-08-05T20:49:26.051Z,3.33
2022-08-05T20:51:57.271Z,3.25
2022-08-05T20:54:42.422Z,3.35
2022-08-05T20:57:14.441Z,2.10
2022-08-05T21:00:10.607Z,3.78
2022-08-05T21:02:30.119Z,3.80
2022-08-05T21:04:58.225Z,4.47
2022-08-05T21:07:50.948Z,2.25
2022-08-05T21:10:19.352Z,6.07
2022-08-05T21:12:57.764Z,2.90
2022-08-05T21:15:35.334Z,3.10
2022-08-05T21:18:04.845Z,2.80
2022-08-05T21:20:34.210Z,3.45
2022-08-05T21:23:03.559Z,4.50
2022-08-05T21:25:34.041Z,3.45
2022-08-05T21:28:02.971Z,3.67
2022-08-05T21:30:31.809Z,4.57
2022-08-05T21:33:01.862Z,3.88
2022-08-05T21:35:55.795Z,2.50
2022-08-05T21:38:19.098Z,4.85
2022-08-05T21:40:46.803Z,3.75
2022-08-05T21:43:24.284Z,3.42
2022-08-05T21:45:57.632Z,2.30
2022-08-05T21:48:28.814Z,2.38
2022-08-05T21:50:57.356Z,2.88
2022-08-05T21:53:27.519Z,3.92
2022-08-05T21:56:05.598Z,5.55
2022-08-05T21:58:42.025Z,6.15
2022-08-05T22:01:10.651Z,2.80
2022-08-05T22:03:52.446Z,5.85
2022-08-05T22:06:23.054Z,3.40
2022-08-05T22:09:14.798Z,3.50
2022-08-05T22:11:47.074Z,3.15
2022-08-05T22:14:35.373Z,2.70
2022-08-05T22:17:05.392Z,5.55
2022-08-05T22:20:00.423Z,3.53
2022-08-05T22:22:26.924Z,4.10
2022-08-05T22:25:20.986Z,4.38
2022-08-05T22:28:09.183Z,2.75
2022-08-05T22:30:56.553Z,6.40
2022-08-05T22:33:58.342Z,4.65
2022-08-05T22:36:14.443Z,3.25
2022-08-05T22:38:43.076Z,2.47
2022-08-05T22:41:12.306Z,4.88
2022-08-05T22:43:42.793Z,4.07
2022-08-05T22:46:13.435Z,5.10
2022-08-05T22:48:41.812Z,4.30
2022-08-05T22:51:15.868Z,3.10
2022-08-05T22:53:50.822Z,3.58
2022-08-05T22:56:30.570Z,3.80
2022-08-05T22:59:00.032Z,4.75
2022-08-05T23:02:04.199Z,6.15
2022-08-05T23:04:18.703Z,4.35
2022-08-05T23:06:47.892Z,3.60
2022-08-05T23:09:27.612Z,2.75
2022-08-05T23:12:05.407Z,5.07
2022-08-05T23:14:33.659Z,3.20
2022-08-05T23:17:23.976Z,4.20
2022-08-05T23:19:56.374Z,5.68
2022-08-05T23:22:27.581Z,3.08
2022-08-05T23:24:56.327Z,2.45
2022-08-05T23:27:31.381Z,4.32
2022-08-05T23:30:11.323Z,4.95
2022-08-05T23:32:40.707Z,4.22
2022-08-05T23:35:13.221Z,4.68
2022-08-05T23:37:41.407Z,6.32
2022-08-05T23:40:11.825Z,4.53
2022-08-05T23:42:40.947Z,2.13
2022-08-05T23:45:15.859Z,4.00
2022-08-05T23:47:47.990Z,2.05
2022-08-05T23:50:17.018Z,5.57
2022-08-05T23:52:50.499Z,1.65
2022-08-05T23:55:19.313Z,3.10
2022-08-05T23:57:49.014Z,2.42
